createdAt,value
2022-12-23T00:01:35.985Z,71.70
2022-12-23T00:04:02.604Z,71.60
2022-12-23T00:06:29.141Z,71.70
2022-12-23T00:08:55.634Z,71.70
2022-12-23T00:11:22.083Z,71.70
2022-12-23T00:13:48.568Z,71.70
2022-12-23T00:16:15.145Z,71.60
2022-12-23T00:18:41.683Z,71.70
2022-12-23T00:21:09.145Z,71.80
2022-12-23T00:23:35.917Z,71.60
2022-12-23T00:26:02.386Z,71.70
2022-12-23T00:28:28.831Z,71.80
2022-12-23T00:30:55.297Z,71.80
2022-12-23T00:33:21.757Z,71.70
2022-12-23T00:35:48.255Z,71.70
2022-12-23T00:38:14.729Z,71.70
2022-12-23T00:40:41.235Z,71.80
2022-12-23T00:43:07.682Z,71.80
2022-12-23T00:45:34.202Z,71.80
2022-12-23T00:48:00.740Z,71.80
2022-12-23T00:50:27.237Z,71.80
2022-12-23T00:52:53.699Z,71.80
2022-12-23T00:55:20.200Z,71.80
2022-12-23T00:57:46.674Z,71.80
2022-12-23T01:00:13.192Z,71.90
2022-12-23T01:02:39.799Z,71.80
2022-12-23T01:05:06.421Z,71.90
2022-12-23T01:07:32.872Z,71.70
2022-12-23T01:09:59.351Z,71.80
2022-12-23T01:12:25.805Z,71.90
2022-12-23T01:14:52.286Z,71.90
2022-12-23T01:17:18.841Z,71.80
2022-12-23T01:19:45.412Z,71.80
2022-12-23T01:22:11.894Z,71.80
2022-12-23T01:24:38.350Z,71.80
2022-12-23T01:27:04.853Z,71.90
2022-12-23T01:29:31.340Z,72.00
2022-12-23T01:31:57.912Z,71.90
2022-12-23T01:34:24.423Z,71.80
2022-12-23T01:36:50.905Z,71.80
2022-12-23T01:39:17.389Z,71.90
2022-12-23T01:41:43.858Z,72.00
2022-12-23T01:44:10.310Z,71.90
2022-12-23T01:46:36.805Z,71.90
2022-12-23T01:49:03.266Z,71.90
2022-12-23T01:51:29.769Z,71.90
2022-12-23T01:53:56.236Z,72.00
2022-12-23T01:56:22.737Z,71.80
2022-12-23T01:58:49.216Z,71.90
2022-12-23T02:01:15.707Z,72.00
2022-12-23T02:03:42.268Z,72.00
2022-12-23T02:06:08.833Z,71.90
2022-12-23T02:08:35.302Z,71.80
2022-12-23T02:11:01.804Z,71.90
2022-12-23T02:13:28.267Z,71.90
2022-12-23T02:15:54.747Z,71.90
2022-12-23T02:18:21.225Z,72.00
2022-12-23T02:20:47.707Z,72.00
2022-12-23T02:23:14.166Z,72.00
2022-12-23T02:25:40.650Z,71.90
2022-12-23T02:28:07.124Z,72.00
2022-12-23T02:30:33.672Z,72.00
2022-12-23T02:33:00.181Z,72.00
2022-12-23T02:35:26.666Z,72.10
2022-12-23T02:37:53.176Z,72.20
2022-12-23T02:40:19.675Z,72.20
2022-12-23T02:42:46.155Z,72.20
2022-12-23T02:45:12.664Z,72.20
2022-12-23T02:47:39.131Z,72.20
2022-12-23T02:50:05.592Z,72.00
2022-12-23T02:52:32.068Z,72.10
2022-12-23T02:54:58.537Z,72.10
2022-12-23T02:57:25.017Z,72.20
2022-12-23T02:59:51.487Z,72.20
2022-12-23T03:02:18.217Z,72.30
2022-12-23T03:04:44.828Z,72.30
2022-12-23T03:07:15.148Z,72.30
2022-12-23T03:09:44.855Z,72.30
2022-12-23T03:12:11.336Z,72.40
2022-12-23T03:14:37.809Z,72.30
2022-12-23T03:17:04.301Z,72.30
2022-12-23T03:19:30.771Z,72.20
2022-12-23T03:21:57.267Z,72.30
2022-12-23T03:24:23.735Z,72.50
2022-12-23T03:26:50.225Z,72.30
2022-12-23T03:29:16.685Z,72.30
2022-12-23T03:31:43.221Z,72.20
2022-12-23T03:34:09.738Z,72.40
2022-12-23T03:36:36.227Z,72.40
2022-12-23T03:39:02.692Z,72.30
2022-12-23T03:41:29.191Z,72.20
2022-12-23T03:43:55.647Z,72.30
2022-12-23T03:46:22.177Z,72.40
2022-12-23T03:48:48.691Z,72.40
2022-12-23T03:51:15.145Z,72.30
2022-12-23T03:53:41.617Z,72.50
2022-12-23T03:56:08.088Z,72.50
2022-12-23T03:58:34.549Z,72.40
2022-12-23T04:01:01.028Z,72.60
2022-12-23T04:03:27.577Z,72.40
2022-12-23T04:05:54.096Z,72.40
2022-12-23T04:08:20.551Z,72.30
2022-12-23T04:10:47.010Z,72.40
2022-12-23T04:13:13.476Z,72.30
2022-12-23T04:15:40.019Z,72.40
2022-12-23T04:18:06.565Z,72.40
2022-12-23T04:20:33.043Z,72.40
2022-12-23T04:22:59.524Z,72.50
2022-12-23T04:25:25.989Z,72.50
2022-12-23T04:27:52.465Z,72.50
2022-12-23T04:30:18.939Z,72.40
2022-12-23T04:32:45.456Z,72.40
2022-12-23T04:35:11.923Z,72.40
2022-12-23T04:37:38.423Z,72.60
2022-12-23T04:40:04.883Z,72.50
2022-12-23T04:42:31.384Z,72.50
2022-12-23T04:44:57.846Z,72.50
2022-12-23T04:47:24.307Z,72.50
2022-12-23T04:49:50.803Z,72.40
2022-12-23T04:52:17.273Z,72.40
2022-12-23T04:54:46.249Z,72.50
2022-12-23T04:57:13.103Z,72.50
2022-12-23T04:59:39.575Z,72.60
2022-12-23T05:02:06.337Z,72.60
2022-12-23T05:04:32.975Z,72.60
2022-12-23T05:06:59.520Z,72.60
2022-12-23T05:09:26.016Z,72.60
2022-12-23T05:11:52.489Z,72.70
2022-12-23T05:14:18.976Z,72.60
2022-12-23T05:16:45.508Z,72.60
2022-12-23T05:19:12.121Z,72.70
2022-12-23T05:21:38.579Z,72.50
2022-12-23T05:24:05.057Z,72.50
2022-12-23T05:26:31.526Z,72.50
2022-12-23T05:28:58.002Z,72.60
2022-12-23T05:31:24.505Z,72.50
2022-12-23T05:33:51.078Z,72.50
2022-12-23T05:36:17.577Z,72.60
2022-12-23T05:38:44.053Z,72.70
2022-12-23T05:41:10.523Z,72.60
2022-12-23T05:43:37.004Z,72.70
2022-12-23T05:46:03.508Z,72.80
2022-12-23T05:48:30.020Z,72.80
2022-12-23T05:50:56.505Z,72.80
2022-12-23T05:53:22.976Z,72.80
2022-12-23T05:55:49.448Z,72.70
2022-12-23T05:58:15.945Z,72.70
2022-12-23T06:00:42.403Z,72.50
2022-12-23T06:03:09.035Z,72.50
2022-12-23T06:05:35.625Z,72.40
2022-12-23T06:08:02.092Z,72.40
2022-12-23T06:10:28.577Z,72.30
2022-12-23T06:12:55.060Z,72.30
2022-12-23T06:15:21.540Z,72.30
2022-12-23T06:17:48.007Z,72.40
2022-12-23T06:20:20.425Z,72.40
2022-12-23T06:22:47.505Z,72.40
2022-12-23T06:25:13.966Z,72.30
2022-12-23T06:27:40.445Z,72.30
2022-12-23T06:30:06.911Z,72.50
2022-12-23T06:32:38.094Z,72.40
2022-12-23T06:35:05.206Z,72.40
2022-12-23T06:37:31.677Z,72.40
2022-12-23T06:39:58.201Z,72.30
2022-12-23T06:42:24.696Z,72.30
2022-12-23T06:44:51.210Z,72.40
2022-12-23T06:47:17.672Z,72.30
2022-12-23T06:49:44.166Z,72.20
2022-12-23T06:52:10.640Z,72.20
2022-12-23T06:54:37.118Z,72.20
2022-12-23T06:57:03.596Z,72.10
2022-12-23T06:59:30.056Z,72.20
2022-12-23T07:01:56.671Z,72.20
2022-12-23T07:04:23.210Z,72.20
2022-12-23T07:06:49.705Z,72.30
2022-12-23T07:09:16.177Z,72.20
2022-12-23T07:11:42.637Z,72.10
2022-12-23T07:14:09.113Z,72.20
2022-12-23T07:16:35.639Z,72.10
2022-12-23T07:19:03.122Z,72.10
2022-12-23T07:21:30.246Z,72.00
2022-12-23T07:23:56.974Z,72.10
2022-12-23T07:26:23.476Z,72.20
2022-12-23T07:28:49.946Z,72.10
2022-12-23T07:31:16.550Z,72.00
2022-12-23T07:33:43.089Z,72.10
2022-12-23T07:36:09.589Z,72.10
2022-12-23T07:38:36.067Z,72.00
2022-12-23T07:41:02.546Z,72.00
2022-12-23T07:43:29.008Z,72.00
2022-12-23T07:46:00.657Z,72.00
2022-12-23T07:48:27.631Z,72.00
2022-12-23T07:50:54.158Z,72.00
2022-12-23T07:53:20.636Z,72.00
2022-12-23T07:55:51.549Z,72.00
2022-12-23T07:58:21.098Z,72.00
2022-12-23T08:00:47.584Z,72.00
2022-12-23T08:03:14.249Z,72.00
2022-12-23T08:05:40.853Z,72.00
2022-12-23T08:08:07.308Z,72.00
2022-12-23T08:10:33.804Z,72.10
2022-12-23T08:13:00.248Z,72.10
2022-12-23T08:15:26.739Z,72.10
2022-12-23T08:17:53.249Z,72.10
2022-12-23T08:20:19.738Z,72.10
2022-12-23T08:22:46.192Z,72.00
2022-12-23T08:25:12.684Z,72.00
2022-12-23T08:27:39.144Z,72.10
2022-12-23T08:30:05.603Z,72.10
2022-12-23T08:32:32.085Z,72.20
2022-12-23T08:34:58.546Z,72.20
2022-12-23T08:37:25.044Z,72.20
2022-12-23T08:39:51.545Z,72.00
2022-12-23T08:42:18.023Z,72.10
2022-12-23T08:44:44.531Z,72.10
2022-12-23T08:47:11.014Z,72.10
2022-12-23T08:49:37.494Z,72.00
2022-12-23T08:52:03.981Z,72.10
2022-12-23T08:54:30.440Z,72.00
2022-12-23T08:56:56.943Z,71.90
2022-12-23T08:59:23.427Z,71.90
2022-12-23T09:01:49.995Z,72.00
2022-12-23T09:04:16.557Z,71.90
2022-12-23T09:06:43.028Z,72.00
2022-12-23T09:09:09.569Z,71.90
2022-12-23T09:11:36.038Z,71.90
2022-12-23T09:14:02.505Z,71.80
2022-12-23T09:16:29.088Z,72.00
2022-12-23T09:18:55.621Z,72.00
2022-12-23T09:21:22.094Z,71.90
2022-12-23T09:23:48.564Z,71.90
2022-12-23T09:26:15.044Z,71.80
2022-12-23T09:28:41.513Z,71.80
2022-12-23T09:31:08.072Z,71.80
2022-12-23T09:33:34.629Z,71.80
2022-12-23T09:36:01.122Z,71.80
2022-12-23T09:38:27.592Z,71.80
2022-12-23T09:40:54.077Z,71.70
2022-12-23T09:43:20.539Z,71.80
2022-12-23T09:45:47.019Z,71.80
2022-12-23T09:48:13.503Z,71.70
2022-12-23T09:50:40.013Z,71.80
2022-12-23T09:53:06.495Z,71.80
2022-12-23T09:55:32.995Z,71.80
2022-12-23T09:57:59.438Z,71.70
2022-12-23T10:00:25.917Z,71.80
2022-12-23T10:02:52.560Z,71.80
2022-12-23T10:05:19.188Z,71.80
2022-12-23T10:07:45.656Z,71.80
2022-12-23T10:10:12.133Z,71.90
2022-12-23T10:12:40.253Z,71.70
2022-12-23T10:15:06.914Z,71.80
2022-12-23T10:17:33.371Z,71.80
2022-12-23T10:19:59.854Z,71.80
2022-12-23T10:22:26.322Z,71.80
2022-12-23T10:24:52.787Z,71.70
2022-12-23T10:27:19.281Z,71.70
2022-12-23T10:29:45.751Z,71.70
2022-12-23T10:32:12.317Z,71.70
2022-12-23T10:34:38.967Z,71.60
2022-12-23T10:37:05.602Z,71.60
2022-12-23T10:39:32.132Z,71.70
2022-12-23T10:41:58.646Z,71.70
2022-12-23T10:44:29.464Z,71.70
2022-12-23T10:46:56.225Z,71.70
2022-12-23T10:49:22.751Z,71.60
2022-12-23T10:51:49.251Z,71.70
2022-12-23T10:54:15.707Z,71.60
2022-12-23T10:56:42.199Z,71.60
2022-12-23T10:59:08.657Z,71.60
2022-12-23T11:01:35.181Z,71.60
2022-12-23T11:04:01.817Z,71.60
2022-12-23T11:06:33.257Z,71.60
2022-12-23T11:09:03.484Z,71.50
2022-12-23T11:11:29.996Z,71.60
2022-12-23T11:13:56.483Z,71.50
2022-12-23T11:16:23.020Z,71.50
2022-12-23T11:18:49.534Z,71.60
2022-12-23T11:21:16.004Z,71.60
2022-12-23T11:23:42.486Z,71.50
2022-12-23T11:26:08.977Z,71.60
2022-12-23T11:28:35.444Z,71.50
2022-12-23T11:31:01.912Z,71.50
2022-12-23T11:33:28.433Z,71.50
2022-12-23T11:35:54.985Z,71.50
2022-12-23T11:38:21.442Z,71.40
2022-12-23T11:40:47.959Z,71.60
2022-12-23T11:43:14.574Z,71.50
2022-12-23T11:45:41.148Z,71.60
2022-12-23T11:48:07.746Z,71.60
2022-12-23T11:50:34.235Z,71.50
2022-12-23T11:53:00.758Z,71.50
2022-12-23T11:55:27.272Z,71.50
2022-12-23T11:57:53.775Z,71.50
2022-12-23T12:00:20.257Z,71.60
2022-12-23T12:02:46.795Z,71.50
2022-12-23T12:05:13.294Z,71.50
2022-12-23T12:07:39.800Z,71.60
2022-12-23T12:10:06.267Z,71.60
2022-12-23T12:12:32.726Z,71.50
2022-12-23T12:14:59.197Z,71.40
2022-12-23T12:17:25.665Z,71.50
2022-12-23T12:19:52.126Z,71.40
2022-12-23T12:22:18.584Z,71.60
2022-12-23T12:24:45.047Z,71.30
2022-12-23T12:27:11.513Z,71.50
2022-12-23T12:29:37.979Z,71.30
2022-12-23T12:32:04.461Z,71.60
2022-12-23T12:34:30.941Z,71.50
2022-12-23T12:36:57.494Z,71.40
2022-12-23T12:39:24.033Z,71.50
2022-12-23T12:41:50.509Z,71.60
2022-12-23T12:44:17.024Z,71.60
2022-12-23T12:46:43.500Z,71.70
2022-12-23T12:49:09.982Z,71.60
2022-12-23T12:51:36.461Z,71.60
2022-12-23T12:54:05.922Z,71.60
2022-12-23T12:56:32.731Z,71.60
2022-12-23T12:58:59.214Z,71.60
2022-12-23T13:01:25.742Z,71.70
2022-12-23T13:03:52.270Z,71.60
2022-12-23T13:06:19.021Z,71.60
2022-12-23T13:08:45.488Z,71.60
2022-12-23T13:11:11.965Z,71.70
2022-12-23T13:13:38.433Z,71.70
2022-12-23T13:16:04.909Z,71.70
2022-12-23T13:18:31.369Z,71.60
2022-12-23T13:20:57.831Z,71.60
2022-12-23T13:26:10.692Z,71.50
2022-12-23T13:28:37.153Z,71.70
2022-12-23T13:31:03.672Z,71.70
2022-12-23T13:33:30.163Z,71.70
2022-12-23T13:36:04.740Z,71.80
2022-12-23T13:38:32.078Z,71.70
2022-12-23T13:40:58.526Z,71.80
2022-12-23T13:43:24.989Z,71.70
2022-12-23T13:45:51.522Z,71.80
2022-12-23T13:48:18.053Z,71.90
2022-12-23T13:50:44.550Z,71.50
2022-12-23T13:53:11.047Z,71.70
2022-12-23T13:55:37.543Z,71.60
2022-12-23T13:58:04.033Z,71.60
2022-12-23T14:00:30.569Z,71.80
2022-12-23T14:02:57.109Z,71.80
2022-12-23T14:05:23.646Z,71.80
2022-12-23T14:07:50.112Z,72.00
2022-12-23T14:10:16.582Z,72.00
2022-12-23T14:12:43.053Z,72.10
2022-12-23T14:15:09.544Z,72.30
2022-12-23T14:17:36.025Z,72.30
2022-12-23T14:20:02.523Z,72.00
2022-12-23T14:22:29.015Z,72.10
2022-12-23T14:24:55.528Z,72.00
2022-12-23T14:27:22.012Z,71.90
2022-12-23T14:29:48.495Z,71.90
2022-12-23T14:32:14.964Z,72.00
2022-12-23T14:34:41.431Z,72.10
2022-12-23T14:37:07.910Z,72.20
2022-12-23T14:39:34.390Z,72.00
2022-12-23T14:42:06.081Z,72.00
2022-12-23T14:44:33.916Z,72.00
2022-12-23T14:47:00.451Z,72.10
2022-12-23T14:49:38.907Z,72.10
2022-12-23T14:52:06.705Z,72.00
2022-12-23T14:54:33.166Z,72.00
2022-12-23T14:56:59.667Z,72.20
2022-12-23T14:59:26.146Z,72.10
2022-12-23T15:01:52.672Z,71.90
2022-12-23T15:04:19.443Z,72.20
2022-12-23T15:06:45.942Z,72.40
2022-12-23T15:09:12.434Z,72.30
2022-12-23T15:11:38.911Z,72.10
2022-12-23T15:14:05.400Z,72.20
2022-12-23T15:16:31.931Z,72.20
2022-12-23T15:18:58.464Z,72.50
2022-12-23T15:21:24.926Z,72.40
2022-12-23T15:23:51.417Z,72.30
2022-12-23T15:26:17.911Z,72.60
2022-12-23T15:28:44.389Z,72.60
2022-12-23T15:31:10.938Z,72.70
2022-12-23T15:34:02.880Z,72.70
2022-12-23T15:36:23.939Z,72.70
2022-12-23T15:38:50.468Z,72.60
2022-12-23T15:41:17.029Z,72.80
2022-12-23T15:43:43.614Z,72.70
